createdAt,value
2019-03-15T00:01:36.746Z,64.10
2019-03-15T00:04:40.576Z,58.00
2019-03-15T00:07:44.474Z,58.03
2019-03-15T00:10:48.664Z,55.63
2019-03-15T00:13:52.237Z,54.70
2019-03-15T00:16:56.148Z,48.17
2019-03-15T00:19:59.723Z,57.57
2019-03-15T00:23:03.576Z,51.20
2019-03-15T00:26:07.163Z,52.20
2019-03-15T00:29:10.732Z,51.83
2019-03-15T00:32:15.610Z,45.67
2019-03-15T00:35:19.298Z,54.73
2019-03-15T00:38:23.951Z,48.37
2019-03-15T00:41:27.543Z,46.37
2019-03-15T00:44:31.671Z,42.73
2019-03-15T00:47:35.357Z,40.83
2019-03-15T00:50:38.932Z,42.53
2019-03-15T00:53:42.503Z,42.63
2019-03-15T00:56:46.415Z,42.07
2019-03-15T00:59:49.987Z,41.17
2019-03-15T01:02:53.564Z,39.30
2019-03-15T01:05:57.420Z,41.67
2019-03-15T01:09:01.020Z,36.83
2019-03-15T01:12:04.947Z,34.17
2019-03-15T01:15:08.562Z,31.60
2019-03-15T01:18:12.143Z,37.30
2019-03-15T01:21:15.743Z,32.20
2019-03-15T01:24:19.552Z,33.27
2019-03-15T01:27:23.480Z,33.23
2019-03-15T01:30:27.053Z,33.60
2019-03-15T01:33:30.883Z,31.33
2019-03-15T01:36:34.472Z,33.17
2019-03-15T01:39:38.289Z,30.30
2019-03-15T01:42:42.159Z,29.70
2019-03-15T01:45:45.732Z,28.80
2019-03-15T01:48:49.833Z,27.43
2019-03-15T01:51:53.412Z,27.73
2019-03-15T01:54:56.988Z,28.57
2019-03-15T01:58:00.575Z,27.10
2019-03-15T02:01:04.632Z,28.90
2019-03-15T02:04:08.310Z,25.20
2019-03-15T02:07:11.889Z,25.80
2019-03-15T02:10:15.480Z,23.57
2019-03-15T02:13:19.377Z,23.83
2019-03-15T02:16:22.964Z,25.80
2019-03-15T02:19:26.544Z,23.60
2019-03-15T02:22:30.131Z,20.63
2019-03-15T02:25:33.708Z,22.50
2019-03-15T02:28:37.611Z,22.30
2019-03-15T02:31:41.197Z,24.27
2019-03-15T02:34:44.768Z,21.70
2019-03-15T02:37:48.627Z,24.07
2019-03-15T02:40:52.250Z,19.97
2019-03-15T02:43:55.830Z,21.23
2019-03-15T02:46:59.406Z,22.53
2019-03-15T02:50:03.001Z,19.63
2019-03-15T02:53:06.588Z,20.50
2019-03-15T02:56:10.182Z,24.20
2019-03-15T02:59:14.079Z,17.37
2019-03-15T03:02:17.640Z,18.60
2019-03-15T03:05:21.205Z,16.57
2019-03-15T03:08:24.781Z,18.97
2019-03-15T03:11:28.361Z,17.10
2019-03-15T03:14:31.943Z,18.10
2019-03-15T03:17:35.796Z,16.77
2019-03-15T03:20:39.351Z,17.23
2019-03-15T03:23:43.244Z,18.13
2019-03-15T03:26:47.151Z,14.60
2019-03-15T03:29:51.344Z,15.07
2019-03-15T03:32:55.568Z,18.23
2019-03-15T03:36:00.984Z,16.50
2019-03-15T03:39:06.774Z,16.27
2019-03-15T03:42:10.720Z,14.40
2019-03-15T03:45:14.656Z,15.67
2019-03-15T03:48:18.493Z,15.20
2019-03-15T03:51:22.533Z,17.30
2019-03-15T03:54:26.516Z,14.80
2019-03-15T03:57:30.072Z,14.50
2019-03-15T04:00:33.721Z,14.80
2019-03-15T04:03:37.952Z,13.73
2019-03-15T04:06:41.516Z,13.40
2019-03-15T04:09:45.096Z,13.17
2019-03-15T04:12:48.661Z,13.77
2019-03-15T04:15:52.876Z,13.17
2019-03-15T04:18:56.480Z,14.10
2019-03-15T04:22:00.701Z,11.50
2019-03-15T04:25:07.240Z,12.23
2019-03-15T04:28:09.988Z,11.63
2019-03-15T04:31:13.665Z,14.57
2019-03-15T04:34:17.464Z,12.33
2019-03-15T04:37:22.845Z,12.70
2019-03-15T04:40:26.820Z,11.90
2019-03-15T04:43:30.383Z,10.60
2019-03-15T04:46:33.960Z,12.47
2019-03-15T04:49:38.143Z,10.77
2019-03-15T04:52:42.273Z,11.80
2019-03-15T04:55:46.170Z,9.30
2019-03-15T04:58:49.742Z,9.83
2019-03-15T05:01:53.600Z,10.77
2019-03-15T05:05:00.167Z,10.37
2019-03-15T05:08:02.729Z,11.47
2019-03-15T05:11:06.869Z,58.50
2019-03-15T05:14:10.432Z,43.37
2019-03-15T05:17:14.016Z,49.13
2019-03-15T05:20:20.901Z,46.30
2019-03-15T05:23:23.521Z,45.30
2019-03-15T05:26:27.126Z,112.90
2019-03-15T05:29:30.705Z,144.53
2019-03-15T05:32:34.647Z,330.80
2019-03-15T05:35:38.457Z,308.30
2019-03-15T05:38:42.052Z,266.33
2019-03-15T05:41:45.633Z,248.07
2019-03-15T05:44:49.209Z,233.23
2019-03-15T05:47:52.800Z,236.97
2019-03-15T05:50:56.379Z,228.40
2019-03-15T05:54:00.289Z,212.83
2019-03-15T05:57:04.144Z,26.37
2019-03-15T06:00:09.595Z,31.33
2019-03-15T06:03:13.186Z,46.53
2019-03-15T06:06:17.083Z,74.23
2019-03-15T06:09:20.909Z,60.90
2019-03-15T06:12:24.493Z,59.70
2019-03-15T06:15:28.076Z,61.90
2019-03-15T06:18:31.893Z,51.57
2019-03-15T06:21:35.474Z,58.83
2019-03-15T06:24:39.037Z,52.97
2019-03-15T06:27:42.616Z,47.07
2019-03-15T06:30:46.500Z,50.73
2019-03-15T06:33:50.077Z,50.03
2019-03-15T06:36:54.226Z,48.10
2019-03-15T06:39:57.800Z,44.73
2019-03-15T06:43:01.650Z,47.53
2019-03-15T06:46:05.303Z,43.73
2019-03-15T06:49:09.199Z,40.13
2019-03-15T06:52:12.775Z,42.37
2019-03-15T06:55:16.339Z,40.13
2019-03-15T06:58:20.289Z,40.93
2019-03-15T07:01:24.144Z,34.73
2019-03-15T07:04:28.215Z,38.30
2019-03-15T07:07:31.792Z,42.03
2019-03-15T07:10:35.375Z,36.10
2019-03-15T07:13:39.269Z,39.73
2019-03-15T07:16:43.070Z,34.00
2019-03-15T07:19:46.651Z,34.23
2019-03-15T07:22:50.536Z,31.23
2019-03-15T07:25:54.114Z,34.13
2019-03-15T07:28:57.957Z,32.67
2019-03-15T07:32:01.884Z,30.97
2019-03-15T07:35:05.747Z,31.57
2019-03-15T07:38:09.318Z,33.17
2019-03-15T07:41:12.914Z,31.23
2019-03-15T07:44:16.476Z,29.83
2019-03-15T07:47:20.041Z,27.30
2019-03-15T07:50:23.670Z,26.57
2019-03-15T07:53:27.545Z,26.27
2019-03-15T07:56:31.130Z,27.00
2019-03-15T07:59:35.028Z,28.90
2019-03-15T08:02:38.601Z,28.43
2019-03-15T08:05:42.171Z,27.40
2019-03-15T08:08:46.103Z,25.70
2019-03-15T08:11:50.057Z,23.07
2019-03-15T08:14:53.637Z,28.33
2019-03-15T08:17:57.210Z,25.63
2019-03-15T08:21:00.820Z,25.47
2019-03-15T08:24:04.397Z,23.03
2019-03-15T08:27:07.981Z,21.10
2019-03-15T08:30:12.373Z,20.93
2019-03-15T08:33:15.944Z,24.70
2019-03-15T08:36:20.427Z,22.73
2019-03-15T08:39:24.064Z,21.27
2019-03-15T08:42:27.651Z,21.37
2019-03-15T08:45:31.306Z,21.23
2019-03-15T08:48:34.873Z,18.30
2019-03-15T08:51:38.465Z,21.17
2019-03-15T08:54:42.034Z,21.13
2019-03-15T08:57:45.617Z,20.30
2019-03-15T09:00:49.193Z,18.23
2019-03-15T09:03:52.802Z,18.97
2019-03-15T09:06:56.432Z,17.97
2019-03-15T09:10:03.361Z,16.73
2019-03-15T09:13:05.916Z,19.83
2019-03-15T09:16:09.481Z,19.40
2019-03-15T09:19:13.338Z,17.77
2019-03-15T09:22:16.973Z,14.87
2019-03-15T09:25:21.211Z,17.77
2019-03-15T09:28:25.180Z,16.00
2019-03-15T09:31:33.469Z,18.10
2019-03-15T09:34:34.042Z,17.03
2019-03-15T09:37:37.690Z,19.67
2019-03-15T09:40:41.260Z,16.17
2019-03-15T09:43:45.520Z,15.07
2019-03-15T09:46:49.395Z,13.87
2019-03-15T09:49:53.572Z,13.30
2019-03-15T09:52:57.508Z,14.93
2019-03-15T09:56:01.118Z,13.83
2019-03-15T09:59:04.693Z,14.83
2019-03-15T10:02:08.268Z,15.60
2019-03-15T10:05:11.896Z,12.33
2019-03-15T10:08:15.754Z,13.93
2019-03-15T10:11:19.518Z,15.47
2019-03-15T10:14:23.088Z,15.20
2019-03-15T10:17:26.789Z,10.83
2019-03-15T10:20:30.339Z,14.37
2019-03-15T10:23:34.197Z,12.53
2019-03-15T10:26:37.769Z,12.47
2019-03-15T10:29:41.341Z,12.60
2019-03-15T10:32:45.286Z,13.53
2019-03-15T10:35:48.862Z,10.63
2019-03-15T10:38:52.784Z,12.13
2019-03-15T10:41:56.916Z,10.33
2019-03-15T10:45:00.828Z,12.27
2019-03-15T10:48:07.925Z,10.13
2019-03-15T10:51:10.269Z,11.73
2019-03-15T10:54:13.848Z,11.60
2019-03-15T10:57:17.413Z,12.10
2019-03-15T11:00:21.000Z,10.90
2019-03-15T11:03:24.911Z,10.87
2019-03-15T11:06:28.507Z,10.43
2019-03-15T11:09:32.417Z,10.97
2019-03-15T11:12:35.979Z,12.73
2019-03-15T11:15:40.136Z,10.57
2019-03-15T11:18:43.699Z,10.37
2019-03-15T11:21:47.308Z,9.23
2019-03-15T11:24:50.977Z,10.73
2019-03-15T11:27:54.542Z,10.57
2019-03-15T11:31:00.646Z,9.50
2019-03-15T11:34:03.393Z,11.70
2019-03-15T11:37:06.948Z,9.17
2019-03-15T11:40:13.695Z,9.70
2019-03-15T11:43:16.196Z,9.80
2019-03-15T11:46:20.089Z,9.73
2019-03-15T11:49:23.966Z,10.40
2019-03-15T11:52:27.541Z,11.07
2019-03-15T11:55:31.333Z,9.03
2019-03-15T11:58:35.188Z,8.53
2019-03-15T12:01:39.010Z,7.90
2019-03-15T12:04:42.574Z,7.73
2019-03-15T12:07:46.404Z,8.50
2019-03-15T12:10:50.223Z,8.50
2019-03-15T12:13:53.791Z,7.30
2019-03-15T12:16:57.364Z,6.27
2019-03-15T12:20:01.263Z,9.07
2019-03-15T12:23:04.836Z,7.33
2019-03-15T12:26:10.151Z,5.93
2019-03-15T12:29:13.759Z,6.30
2019-03-15T12:32:17.338Z,8.70
2019-03-15T12:35:20.892Z,8.67
2019-03-15T12:38:24.726Z,6.70
2019-03-15T12:41:28.378Z,7.00
2019-03-15T12:44:31.947Z,6.60
2019-03-15T12:47:35.842Z,5.37
2019-03-15T12:50:39.943Z,7.67
2019-03-15T12:53:43.516Z,6.17
2019-03-15T12:56:53.574Z,5.63
2019-03-15T12:59:52.620Z,4.63
2019-03-15T13:02:56.185Z,7.53
2019-03-15T13:05:59.750Z,7.63
2019-03-15T13:09:04.111Z,5.17
2019-03-15T13:12:07.667Z,5.03
2019-03-15T13:15:12.696Z,5.30
2019-03-15T13:18:16.258Z,4.57
2019-03-15T13:21:20.984Z,5.60
2019-03-15T13:24:24.654Z,4.33
2019-03-15T13:27:28.216Z,4.77
2019-03-15T13:30:31.848Z,5.63
2019-03-15T13:33:36.367Z,4.43
2019-03-15T13:36:39.927Z,5.60
2019-03-15T13:39:43.768Z,5.27
2019-03-15T13:42:47.513Z,6.33
2019-03-15T13:45:51.071Z,220.83
2019-03-15T13:48:54.658Z,179.80
2019-03-15T13:51:58.232Z,405.57
2019-03-15T13:55:01.810Z,251.83
2019-03-15T13:58:05.774Z,288.50
2019-03-15T14:01:09.625Z,248.27
2019-03-15T14:04:13.537Z,243.43
2019-03-15T14:07:19.818Z,238.37
2019-03-15T14:10:23.307Z,233.67
2019-03-15T14:13:27.220Z,241.10
2019-03-15T14:16:30.804Z,239.67
2019-03-15T14:19:34.735Z,234.23
2019-03-15T14:22:38.630Z,235.57
2019-03-15T14:25:42.219Z,214.17
2019-03-15T14:28:45.788Z,220.00
2019-03-15T14:31:49.651Z,192.10
2019-03-15T14:34:53.260Z,189.40
2019-03-15T14:37:56.852Z,189.70
2019-03-15T14:41:00.634Z,179.40
2019-03-15T14:44:04.710Z,175.83
2019-03-15T14:47:08.710Z,169.00
2019-03-15T14:50:12.291Z,161.23
2019-03-15T14:53:16.426Z,155.97
2019-03-15T14:56:20.013Z,149.70
2019-03-15T14:59:23.591Z,158.37
2019-03-15T15:02:27.174Z,143.63
2019-03-15T15:05:31.343Z,150.50
2019-03-15T15:08:35.572Z,142.73
2019-03-15T15:11:39.388Z,137.90
2019-03-15T15:14:43.189Z,144.27
2019-03-15T15:17:47.083Z,122.20
2019-03-15T15:20:50.914Z,134.40
2019-03-15T15:23:54.827Z,118.63
2019-03-15T15:26:58.401Z,122.23
2019-03-15T15:30:01.976Z,118.03
2019-03-15T15:33:05.560Z,113.13
2019-03-15T15:36:09.381Z,109.80
2019-03-15T15:39:12.954Z,113.83
2019-03-15T15:42:17.163Z,108.93
2019-03-15T15:45:21.064Z,133.70
2019-03-15T15:48:25.295Z,142.43
2019-03-15T15:51:29.211Z,139.50
2019-03-15T15:54:32.785Z,146.63
2019-03-15T15:57:36.372Z,135.03
2019-03-15T16:00:39.948Z,134.27
2019-03-15T16:03:43.544Z,121.97
2019-03-15T16:06:47.124Z,125.87
2019-03-15T16:09:50.709Z,105.93
2019-03-15T16:12:54.283Z,116.57
2019-03-15T16:15:58.145Z,87.07
2019-03-15T16:19:01.737Z,205.50
2019-03-15T16:22:05.313Z,158.17
2019-03-15T16:25:09.181Z,228.43
2019-03-15T16:28:12.765Z,251.20
2019-03-15T16:31:16.344Z,227.43
2019-03-15T16:34:22.096Z,197.17
2019-03-15T16:37:25.765Z,186.27
2019-03-15T16:40:29.353Z,164.00
2019-03-15T16:43:33.233Z,156.53
2019-03-15T16:46:37.140Z,148.70
2019-03-15T16:49:40.722Z,139.53
2019-03-15T16:52:45.685Z,133.40
2019-03-15T16:55:49.314Z,124.40
2019-03-15T16:58:52.924Z,119.50
2019-03-15T17:01:56.799Z,115.47
2019-03-15T17:05:00.666Z,113.07
2019-03-15T17:08:04.827Z,103.83
2019-03-15T17:11:08.426Z,105.17
2019-03-15T17:14:24.835Z,101.57
2019-03-15T17:17:17.309Z,100.90
2019-03-15T17:20:20.879Z,86.47
2019-03-15T17:23:24.446Z,82.33
2019-03-15T17:26:28.046Z,87.50
2019-03-15T17:29:31.619Z,82.33
2019-03-15T17:32:35.185Z,84.93
2019-03-15T17:35:38.803Z,57.17
2019-03-15T17:38:42.933Z,61.13
2019-03-15T17:41:46.776Z,61.50
2019-03-15T17:44:50.350Z,57.10
2019-03-15T17:47:54.254Z,56.10
2019-03-15T17:50:57.846Z,57.90
2019-03-15T17:54:01.636Z,53.47
2019-03-15T17:57:05.521Z,51.40
2019-03-15T18:00:14.836Z,48.40
2019-03-15T18:03:21.900Z,50.57
2019-03-15T18:06:24.677Z,41.20
2019-03-15T18:09:28.606Z,47.33
2019-03-15T18:12:32.190Z,38.43
2019-03-15T18:15:36.327Z,40.40
2019-03-15T18:18:39.899Z,40.77
2019-03-15T18:21:43.471Z,38.67
2019-03-15T18:24:47.037Z,37.43
2019-03-15T18:27:50.683Z,36.10
2019-03-15T18:30:54.583Z,36.33
2019-03-15T18:33:58.445Z,35.33
2019-03-15T18:37:02.021Z,32.83
2019-03-15T18:40:08.213Z,33.97
2019-03-15T18:43:12.130Z,34.67
2019-03-15T18:46:15.699Z,31.87
2019-03-15T18:49:19.274Z,35.10
2019-03-15T18:52:23.207Z,31.10
2019-03-15T18:55:27.563Z,34.03
2019-03-15T18:58:31.136Z,23.20
2019-03-15T19:01:34.718Z,28.17
2019-03-15T19:04:38.535Z,25.83
2019-03-15T19:07:42.445Z,30.17
2019-03-15T19:10:46.027Z,29.73
2019-03-15T19:13:50.233Z,24.53
2019-03-15T19:16:53.810Z,27.90
2019-03-15T19:19:57.383Z,31.57
2019-03-15T19:23:01.040Z,33.47
2019-03-15T19:26:04.608Z,32.27
2019-03-15T19:29:08.185Z,135.77
2019-03-15T19:32:12.362Z,449.10
2019-03-15T19:35:15.960Z,194.37
2019-03-15T19:38:19.536Z,240.77
2019-03-15T19:41:23.373Z,240.67
2019-03-15T19:44:26.956Z,226.53
2019-03-15T19:47:30.802Z,203.73
2019-03-15T19:50:34.704Z,198.10
2019-03-15T19:53:38.578Z,157.80
2019-03-15T19:56:42.149Z,165.93
2019-03-15T19:59:45.729Z,164.47
2019-03-15T20:02:49.307Z,155.07
2019-03-15T20:05:52.882Z,143.27
2019-03-15T20:08:56.476Z,133.90
2019-03-15T20:12:00.055Z,123.70
2019-03-15T20:15:03.638Z,172.10
2019-03-15T20:18:07.543Z,115.50
2019-03-15T20:21:11.911Z,441.97
2019-03-15T20:24:15.503Z,160.37
2019-03-15T20:27:19.381Z,108.23
2019-03-15T20:30:26.202Z,85.57
2019-03-15T20:33:28.261Z,179.33
2019-03-15T20:36:32.450Z,204.07
2019-03-15T20:39:36.313Z,213.33
2019-03-15T20:42:39.896Z,192.27
2019-03-15T20:45:43.780Z,193.37
2019-03-15T20:48:47.845Z,179.63
2019-03-15T20:51:52.023Z,177.03
2019-03-15T20:54:55.605Z,174.73
2019-03-15T20:57:59.319Z,149.53
2019-03-15T21:01:02.984Z,161.67
2019-03-15T21:04:06.562Z,144.57
2019-03-15T21:07:10.646Z,155.00
2019-03-15T21:10:14.422Z,156.43
2019-03-15T21:13:17.989Z,152.97
2019-03-15T21:16:21.574Z,150.60
2019-03-15T21:19:25.151Z,148.57
2019-03-15T21:22:28.795Z,147.40
2019-03-15T21:25:32.372Z,134.37
2019-03-15T21:28:36.278Z,135.67
2019-03-15T21:31:40.201Z,123.77
2019-03-15T21:34:44.424Z,125.17
2019-03-15T21:37:48.081Z,124.50
2019-03-15T21:40:51.966Z,83.33
2019-03-15T21:43:55.780Z,71.07
2019-03-15T21:46:59.650Z,134.53
2019-03-15T21:50:03.259Z,126.27
2019-03-15T21:53:06.841Z,126.83
2019-03-15T21:56:10.946Z,121.77
2019-03-15T21:59:14.783Z,125.70
2019-03-15T22:02:18.710Z,80.57
2019-03-15T22:05:22.283Z,125.13
2019-03-15T22:08:25.886Z,80.37
2019-03-15T22:11:29.812Z,56.43
2019-03-15T22:14:33.737Z,46.17
2019-03-15T22:17:37.831Z,389.30
2019-03-15T22:20:41.799Z,97.13
2019-03-15T22:23:45.664Z,124.83
2019-03-15T22:26:49.535Z,123.43
2019-03-15T22:29:53.964Z,116.73
2019-03-15T22:32:58.321Z,118.27
2019-03-15T22:36:01.918Z,115.87
2019-03-15T22:39:06.772Z,109.30
2019-03-15T22:42:10.678Z,103.47
2019-03-15T22:45:15.028Z,105.07
2019-03-15T22:48:18.854Z,103.50
2019-03-15T22:51:22.708Z,98.77
2019-03-15T22:54:26.633Z,98.70
2019-03-15T22:57:30.313Z,91.47
2019-03-15T23:00:37.954Z,88.13
2019-03-15T23:03:41.538Z,75.33
2019-03-15T23:06:45.559Z,75.13
2019-03-15T23:09:49.409Z,71.07
2019-03-15T23:12:53.000Z,65.17
2019-03-15T23:15:56.571Z,65.97
2019-03-15T23:19:00.151Z,60.47
2019-03-15T23:22:04.295Z,63.27
2019-03-15T23:25:08.020Z,58.10
2019-03-15T23:28:11.595Z,62.87
2019-03-15T23:31:15.458Z,57.37
2019-03-15T23:34:19.365Z,59.40
2019-03-15T23:37:22.946Z,50.37
2019-03-15T23:40:26.525Z,55.40
2019-03-15T23:43:30.184Z,50.10
2019-03-15T23:46:34.078Z,52.60
2019-03-15T23:49:37.662Z,52.27
2019-03-15T23:52:41.464Z,50.13
2019-03-15T23:55:45.401Z,47.10
2019-03-15T23:58:49.286Z,47.00
